KPIA/PIA METAR and TAF weather

Enter ICAO airport designator
Station Type Date Time Source
KPIA METAR 2019/08/23 14:54 UTC NOAA

KPIA 231454Z 07011KT 10SM CLR 22/13 A3016 RMK AO2 SLP211 T02220128 51011


Station Type Date Time Source
KPIA Decoded METAR 2019/08/23 14:54 UTC NOAA

Station name not available
Aug 23, 2019 - 10:54 AM EDT / 2019.08.23 1454 UTC
Wind: from the ENE (070 degrees) at 13 MPH (11 KT):0
Visibility: 10 mile(s):0
Sky conditions: clear
Temperature: 72.0 F (22.2 C)
Dew Point: 55.0 F (12.8 C)
Relative Humidity: 55%
Pressure (altimeter): 30.16 in. Hg (1021 hPa)
Pressure tendency: 0.03 inches (1.1 hPa) higher than three hours ago
ob: KPIA 231454Z 07011KT 10SM CLR 22/13 A3016 RMK AO2 SLP211 T02220128 51011
cycle: 15

Station Type Date Time Source
KPIA TAF 2019/08/23 12:42 UTC NOAA

TAF KPIA 231139Z 2312/2412 06007KT P6SM SCT250
FM231600 08010KT P6SM FEW045 BKN200
FM240000 07008KT P6SM SCT250

Example: see airport list